Time;durP1;ratioP1;P1;durP2;ratioP2;P2;SDS_P1;SDS_P2;PMS_P1;PMS_P2;Temp;Humidity;BMP_temperature;BMP_pressure;BME280_temperature;BME280_humidity;BME280_pressure;Samples;Min_cycle;Max_cycle;Signal;HPM_P1;HPM_P2
2022/04/05 00:00:27;;;;;;;2.40;0.90;;;6.00;99.90;;;;;;5056024;28;20484;-58
2022/04/05 00:02:54;;;;;;;1.90;1.03;;;6.00;99.90;;;;;;5056054;28;20505;-55
2022/04/05 00:05:21;;;;;;;1.23;1.00;;;6.00;99.90;;;;;;5055642;28;20898;-52
2022/04/05 00:07:48;;;;;;;2.80;0.90;;;6.00;99.90;;;;;;5055999;28;20949;-54
2022/04/05 00:10:15;;;;;;;1.90;0.90;;;6.10;99.90;;;;;;5056467;28;20833;-53
2022/04/05 00:12:42;;;;;;;3.20;1.40;;;6.00;99.90;;;;;;5056855;28;20459;-55
2022/04/05 00:15:11;;;;;;;1.77;0.90;;;6.10;99.90;;;;;;5055299;28;20458;-55
2022/04/05 00:17:39;;;;;;;2.37;0.90;;;6.00;99.90;;;;;;5055184;28;20801;-55
2022/04/05 00:20:08;;;;;;;1.93;0.90;;;6.00;99.90;;;;;;5055065;28;20805;-54
2022/04/05 00:22:35;;;;;;;1.90;1.13;;;6.00;99.90;;;;;;5055025;28;20479;-52
2022/04/05 00:25:01;;;;;;;1.30;0.93;;;6.00;99.90;;;;;;5056203;28;20860;-55
2022/04/05 00:27:28;;;;;;;1.70;1.07;;;6.00;99.90;;;;;;5056587;28;20522;-55
2022/04/05 00:29:55;;;;;;;1.60;1.10;;;6.10;99.90;;;;;;5056667;28;20486;-56
2022/04/05 00:32:22;;;;;;;1.30;1.10;;;6.10;99.90;;;;;;5056953;28;20517;-55
2022/04/05 00:34:50;;;;;;;1.57;1.00;;;6.10;99.90;;;;;;5056337;28;20534;-53
2022/04/05 00:37:17;;;;;;;2.37;1.00;;;6.10;99.90;;;;;;5056622;28;20455;-54
2022/04/05 00:39:45;;;;;;;1.90;0.77;;;6.10;99.90;;;;;;5056502;28;20494;-54
2022/04/05 00:42:11;;;;;;;1.60;1.00;;;6.20;99.90;;;;;;5056589;28;20466;-55
2022/04/05 00:44:38;;;;;;;1.57;0.80;;;6.30;99.90;;;;;;5056468;28;20770;-55
2022/04/05 00:47:16;;;;;;;2.87;0.90;;;6.30;99.90;;;;;;5056448;28;20523;-55
2022/04/05 00:49:44;;;;;;;3.00;1.13;;;6.30;99.90;;;;;;5056456;28;20443;-52
2022/04/05 00:52:14;;;;;;;1.30;1.10;;;6.30;99.90;;;;;;5056178;28;20463;-57
2022/04/05 00:54:42;;;;;;;2.00;1.07;;;6.30;99.90;;;;;;5056263;28;20487;-54
2022/04/05 00:57:13;;;;;;;1.77;0.90;;;6.20;99.90;;;;;;5056089;28;20824;-53
2022/04/05 00:59:42;;;;;;;1.63;0.97;;;6.30;99.90;;;;;;5056034;28;20798;-55
2022/04/05 01:02:12;;;;;;;1.87;1.00;;;6.40;99.90;;;;;;5055970;28;20727;-53
2022/04/05 01:04:41;;;;;;;2.27;1.00;;;6.50;99.90;;;;;;5056166;28;20448;-52
2022/04/05 01:07:10;;;;;;;1.87;1.10;;;6.40;99.90;;;;;;5056240;28;20872;-51
2022/04/05 01:09:39;;;;;;;1.50;0.80;;;6.30;99.90;;;;;;5056457;28;20446;-55
2022/04/05 01:12:07;;;;;;;2.20;1.07;;;6.30;99.90;;;;;;5055433;28;20456;-57
2022/04/05 01:14:34;;;;;;;1.73;0.80;;;6.30;99.90;;;;;;5055849;28;20544;-53
2022/04/05 01:17:03;;;;;;;1.80;1.00;;;6.30;99.90;;;;;;5055226;28;20955;-55
2022/04/05 01:19:31;;;;;;;2.50;1.10;;;6.30;99.90;;;;;;5055331;28;20466;-53
2022/04/05 01:21:58;;;;;;;1.20;0.83;;;6.30;99.90;;;;;;5055490;28;20574;-56
2022/04/05 01:24:27;;;;;;;3.37;1.10;;;6.30;99.90;;;;;;5055219;28;20483;-56
2022/04/05 01:26:56;;;;;;;2.10;0.90;;;6.30;99.90;;;;;;5054583;28;20572;-54
2022/04/05 01:29:25;;;;;;;1.90;0.97;;;6.30;99.90;;;;;;5054582;28;20546;-56
2022/04/05 01:31:55;;;;;;;1.70;1.00;;;6.30;99.90;;;;;;5054319;28;20550;-56
2022/04/05 01:34:24;;;;;;;1.70;0.90;;;6.20;1.00;;;;;;5054102;28;20540;-54
2022/04/05 01:36:54;;;;;;;2.07;1.00;;;6.20;1.00;;;;;;5054187;28;20861;-51
2022/04/05 01:39:22;;;;;;;2.10;1.10;;;6.20;1.00;;;;;;5055073;28;20451;-50
2022/04/05 01:41:54;;;;;;;1.90;0.90;;;6.20;1.00;;;;;;5055503;28;20792;-54
2022/04/05 01:44:22;;;;;;;1.60;0.90;;;6.20;1.00;;;;;;5055123;28;20741;-54
2022/04/05 01:46:49;;;;;;;4.10;0.97;;;6.30;1.00;;;;;;5055646;28;20927;-53
2022/04/05 01:49:16;;;;;;;2.90;0.80;;;6.30;1.00;;;;;;5055641;28;20443;-52
2022/04/05 01:51:44;;;;;;;4.13;0.97;;;6.20;1.00;;;;;;5055332;28;20497;-56
2022/04/05 01:54:13;;;;;;;1.30;0.90;;;6.30;1.00;;;;;;5054413;28;20809;-56
2022/04/05 01:56:44;;;;;;;1.40;0.90;;;6.30;1.00;;;;;;5055505;28;20486;-55
2022/04/05 01:59:13;;;;;;;1.73;1.00;;;6.30;1.00;;;;;;5059113;28;20447;-56
2022/04/05 02:01:41;;;;;;;2.27;0.90;;;6.30;1.00;;;;;;5059792;28;20494;-53
2022/04/05 02:04:09;;;;;;;1.30;0.80;;;6.30;1.00;;;;;;5059653;28;20770;-54
2022/04/05 02:06:36;;;;;;;2.33;0.83;;;6.30;1.00;;;;;;5059290;28;20581;-50
2022/04/05 02:09:04;;;;;;;1.40;1.00;;;6.20;83.90;;;;;;5059091;28;20471;-53
2022/04/05 02:11:31;;;;;;;3.00;1.20;;;6.20;1.00;;;;;;5059133;28;20451;-54
2022/04/05 02:13:58;;;;;;;1.70;0.93;;;6.20;99.90;;;;;;5059057;28;20542;-52
2022/04/05 02:16:26;;;;;;;2.03;0.80;;;6.20;43.30;;;;;;5058569;28;20494;-54
2022/04/05 02:18:53;;;;;;;2.60;1.00;;;6.10;99.90;;;;;;5057904;28;20447;-54
2022/04/05 02:21:20;;;;;;;1.90;1.10;;;6.20;1.00;;;;;;5057411;28;20519;-55
2022/04/05 02:23:47;;;;;;;2.50;1.00;;;6.10;99.90;;;;;;5057948;28;20505;-53
2022/04/05 02:26:14;;;;;;;1.33;0.87;;;6.10;98.70;;;;;;5058038;28;20455;-50
2022/04/05 02:28:41;;;;;;;2.13;1.00;;;6.10;99.90;;;;;;5058847;28;20533;-53
2022/04/05 02:31:08;;;;;;;5.87;1.10;;;6.00;99.90;;;;;;5058434;28;20455;-54
2022/04/05 02:33:37;;;;;;;3.30;1.10;;;6.00;1.00;;;;;;5059197;28;20483;-53
2022/04/05 02:36:04;;;;;;;1.60;0.87;;;6.00;1.00;;;;;;5058080;28;20447;-51
2022/04/05 02:38:31;;;;;;;1.20;0.80;;;6.00;1.00;;;;;;5058307;28;20745;-54
2022/04/05 02:40:59;;;;;;;1.70;0.90;;;5.90;99.90;;;;;;5058465;28;20771;-52
2022/04/05 02:43:26;;;;;;;3.43;1.00;;;6.00;1.00;;;;;;5058816;28;20459;-55
2022/04/05 02:45:55;;;;;;;1.20;0.90;;;6.00;1.00;;;;;;5058037;28;20542;-54
2022/04/05 02:48:22;;;;;;;4.30;1.10;;;5.90;1.00;;;;;;5057912;28;20486;-53
2022/04/05 02:50:51;;;;;;;1.53;0.87;;;5.90;1.00;;;;;;5056192;28;20458;-52
2022/04/05 02:53:19;;;;;;;2.43;1.00;;;5.90;1.00;;;;;;5056602;28;20538;-55
2022/04/05 02:55:46;;;;;;;3.00;0.90;;;6.00;1.00;;;;;;5057259;28;20814;-51
2022/04/05 02:58:14;;;;;;;6.60;0.80;;;5.90;1.00;;;;;;5056682;28;20439;-49
2022/04/05 03:00:41;;;;;;;1.60;1.10;;;6.00;1.00;;;;;;5056503;28;20466;-50
2022/04/05 03:03:08;;;;;;;3.03;0.97;;;6.00;99.90;;;;;;5056536;28;20751;-51
2022/04/05 03:05:35;;;;;;;2.47;1.00;;;6.00;99.90;;;;;;5057123;28;20451;-53
2022/04/05 03:08:04;;;;;;;1.20;0.67;;;6.00;1.00;;;;;;5057009;28;21042;-50
2022/04/05 03:10:32;;;;;;;1.37;1.23;;;6.00;1.00;;;;;;5057748;28;20456;-48
2022/04/05 03:13:01;;;;;;;2.80;0.83;;;6.00;99.90;;;;;;5057858;28;20452;-48
2022/04/05 03:15:28;;;;;;;2.10;0.90;;;5.90;1.00;;;;;;5057454;28;20748;-53
2022/04/05 03:17:55;;;;;;;2.07;1.10;;;5.90;1.00;;;;;;5057120;28;20799;-51
2022/04/05 03:20:23;;;;;;;2.30;1.13;;;5.90;99.90;;;;;;5057308;28;20446;-52
2022/04/05 03:22:50;;;;;;;2.70;0.80;;;5.90;1.00;;;;;;5058034;28;20558;-52
2022/04/05 03:25:18;;;;;;;1.60;1.00;;;5.90;31.30;;;;;;5057637;28;20859;-53
2022/04/05 03:27:45;;;;;;;2.27;1.30;;;5.90;1.00;;;;;;5054548;28;20491;-54
2022/04/05 03:30:14;;;;;;;1.60;0.90;;;5.90;1.00;;;;;;5054748;28;20539;-54
2022/04/05 03:32:41;;;;;;;1.53;0.87;;;6.00;1.00;;;;;;5054247;28;20549;-54
2022/04/05 03:35:09;;;;;;;1.90;1.00;;;6.00;1.00;;;;;;5054122;28;20444;-53
2022/04/05 03:37:36;;;;;;;2.10;0.77;;;6.00;99.90;;;;;;5054682;28;20534;-52
2022/04/05 03:40:05;;;;;;;2.50;0.90;;;6.00;1.00;;;;;;5054897;28;20950;-49
2022/04/05 03:42:33;;;;;;;1.20;0.83;;;6.00;1.00;;;;;;5056024;28;20559;-52
2022/04/05 03:45:00;;;;;;;1.70;0.83;;;6.00;99.90;;;;;;5056124;28;20482;-51
2022/04/05 03:47:27;;;;;;;2.33;0.80;;;6.10;1.00;;;;;;5057481;28;20573;-51
2022/04/05 03:49:55;;;;;;;1.57;0.97;;;6.10;1.00;;;;;;5057516;28;20451;-50
2022/04/05 03:52:22;;;;;;;2.47;1.00;;;6.10;1.00;;;;;;5057246;28;20483;-55
2022/04/05 03:54:49;;;;;;;3.37;1.07;;;6.10;99.90;;;;;;5056457;28;20942;-50
2022/04/05 03:57:16;;;;;;;2.67;0.80;;;6.20;1.00;;;;;;5057392;28;20953;-53
2022/04/05 03:59:44;;;;;;;1.20;0.80;;;6.20;1.00;;;;;;5056528;28;20899;-51
2022/04/05 04:02:11;;;;;;;2.13;0.97;;;6.30;1.00;;;;;;5056557;28;20545;-54
2022/04/05 04:04:38;;;;;;;1.33;0.93;;;6.30;1.00;;;;;;5057263;28;20498;-51
2022/04/05 04:07:05;;;;;;;1.97;1.00;;;6.30;99.90;;;;;;5056917;28;20494;-54
2022/04/05 04:09:32;;;;;;;1.30;0.90;;;6.30;1.00;;;;;;5055580;28;20452;-52
2022/04/05 04:11:59;;;;;;;1.50;1.10;;;6.30;1.00;;;;;;5055076;28;20461;-52
2022/04/05 04:14:26;;;;;;;1.93;0.90;;;6.30;1.00;;;;;;5054509;28;20448;-51
2022/04/05 04:16:55;;;;;;;1.47;1.10;;;6.30;21.30;;;;;;5055867;28;20451;-55
2022/04/05 04:19:21;;;;;;;1.10;0.80;;;6.20;99.90;;;;;;5055215;28;20478;-56
2022/04/05 04:21:48;;;;;;;1.30;0.80;;;6.20;1.00;;;;;;5054322;28;20577;-54
2022/04/05 04:24:15;;;;;;;1.30;0.90;;;6.20;99.90;;;;;;5055829;28;20440;-54
2022/04/05 04:26:42;;;;;;;1.80;1.00;;;6.10;99.90;;;;;;5055936;28;20538;-55
2022/04/05 04:29:09;;;;;;;3.33;1.07;;;6.10;99.90;;;;;;5055831;28;20891;-55
2022/04/05 04:31:36;;;;;;;1.77;0.90;;;6.00;1.00;;;;;;5054562;28;20495;-52
2022/04/05 04:34:05;;;;;;;3.23;1.00;;;5.90;1.00;;;;;;5054766;28;20855;-53
2022/04/05 04:36:32;;;;;;;2.00;1.00;;;5.90;1.00;;;;;;5054962;28;20809;-53
2022/04/05 04:38:59;;;;;;;1.87;0.90;;;5.90;76.70;;;;;;5055251;28;20530;-54
2022/04/05 04:41:26;;;;;;;1.63;0.80;;;5.90;99.90;;;;;;5054349;28;20518;-51
2022/04/05 04:43:53;;;;;;;1.07;0.80;;;5.90;1.00;;;;;;5055611;28;20486;-55
2022/04/05 04:46:20;;;;;;;1.33;0.80;;;5.80;1.00;;;;;;5054012;28;20451;-52
2022/04/05 04:48:47;;;;;;;1.63;1.03;;;5.80;1.00;;;;;;5053230;28;21010;-50
2022/04/05 04:51:15;;;;;;;1.50;0.90;;;5.80;1.00;;;;;;5053935;28;20465;-48
2022/04/05 04:53:42;;;;;;;2.10;0.80;;;5.80;1.00;;;;;;5054467;28;20486;-51
2022/04/05 04:56:09;;;;;;;1.53;1.00;;;5.80;1.00;;;;;;5054001;28;20554;-52
2022/04/05 04:58:36;;;;;;;1.53;0.90;;;5.80;1.00;;;;;;5053640;28;20504;-53
2022/04/05 05:01:03;;;;;;;1.63;0.90;;;5.80;1.00;;;;;;5053494;28;20479;-50
2022/04/05 05:03:30;;;;;;;1.60;1.00;;;5.70;1.00;;;;;;5053272;28;20541;-56
2022/04/05 05:05:57;;;;;;;1.93;0.97;;;5.70;1.00;;;;;;5052508;28;20898;-55
2022/04/05 05:08:26;;;;;;;1.67;1.03;;;5.60;1.00;;;;;;5054504;28;20541;-54
2022/04/05 05:10:53;;;;;;;2.40;1.10;;;5.60;1.00;;;;;;5054466;28;20463;-54
2022/04/05 05:13:20;;;;;;;2.10;0.80;;;5.60;1.00;;;;;;5055588;28;20516;-53
2022/04/05 05:15:48;;;;;;;1.37;0.70;;;5.60;1.00;;;;;;5054811;28;20459;-54
2022/04/05 05:18:16;;;;;;;1.93;0.90;;;5.60;1.00;;;;;;5053825;28;20486;-53
2022/04/05 05:20:43;;;;;;;3.70;0.87;;;5.50;1.00;;;;;;5054043;28;20462;-55
2022/04/05 05:23:10;;;;;;;1.67;0.90;;;5.50;1.00;;;;;;5054655;28;20518;-53
2022/04/05 05:25:38;;;;;;;5.63;1.03;;;5.50;1.00;;;;;;5054663;28;20479;-55
2022/04/05 05:28:05;;;;;;;1.57;0.83;;;5.40;1.00;;;;;;5054716;28;20512;-53
2022/04/05 05:31:05;;;;;;;4.70;1.50;;;5.50;3.90;;;;;;5052314;28;20449;-53
2022/04/05 05:33:32;;;;;;;2.97;1.63;;;5.40;1.00;;;;;;5054677;28;20946;-51
2022/04/05 05:35:59;;;;;;;4.10;1.23;;;5.50;1.00;;;;;;5057373;28;20724;-53
2022/04/05 05:38:26;;;;;;;1.40;1.00;;;5.40;1.00;;;;;;5057892;28;20771;-53
2022/04/05 05:40:55;;;;;;;1.50;1.10;;;5.40;1.00;;;;;;5056909;28;20542;-54
2022/04/05 05:43:23;;;;;;;5.10;1.13;;;5.40;9.70;;;;;;5056071;28;20457;-54
2022/04/05 05:45:50;;;;;;;2.63;1.10;;;5.50;1.00;;;;;;5056138;28;20475;-55
2022/04/05 05:48:17;;;;;;;1.80;0.90;;;5.60;1.00;;;;;;5056859;28;20483;-54
2022/04/05 05:50:44;;;;;;;3.80;1.00;;;5.60;1.00;;;;;;5054145;28;20549;-51
2022/04/05 05:53:11;;;;;;;7.93;0.90;;;5.60;1.00;;;;;;5051820;28;20529;-50
2022/04/05 05:55:38;;;;;;;3.20;1.20;;;5.70;1.00;;;;;;5049579;28;20447;-55
2022/04/05 05:58:06;;;;;;;1.53;0.80;;;5.70;1.00;;;;;;5052887;28;20964;-51
2022/04/05 06:00:33;;;;;;;2.47;0.80;;;5.60;1.00;;;;;;5053876;28;20670;-52
2022/04/05 06:03:01;;;;;;;2.17;1.23;;;5.70;1.00;;;;;;5053422;28;20829;-54
2022/04/05 06:05:29;;;;;;;2.33;1.00;;;5.60;1.00;;;;;;5053602;28;20443;-54
2022/04/05 06:07:56;;;;;;;2.40;0.93;;;5.60;1.00;;;;;;5051030;28;20482;-51
2022/04/05 06:10:24;;;;;;;1.83;0.97;;;5.60;2.40;;;;;;5052666;28;20479;-51
2022/04/05 06:12:52;;;;;;;1.40;1.00;;;5.50;1.00;;;;;;5051563;28;20467;-52
2022/04/05 06:15:20;;;;;;;1.20;0.70;;;5.50;1.00;;;;;;5049538;28;20749;-52
2022/04/05 06:17:49;;;;;;;4.73;0.93;;;5.60;1.00;;;;;;5051048;28;20418;-49
2022/04/05 06:20:18;;;;;;;1.90;1.13;;;5.60;10.50;;;;;;5051792;28;20609;-52
2022/04/05 06:22:46;;;;;;;5.13;1.33;;;5.60;17.40;;;;;;5050280;28;20569;-52
2022/04/05 06:25:15;;;;;;;2.50;1.00;;;5.60;53.30;;;;;;5040917;28;20503;-52
2022/04/05 06:27:42;;;;;;;1.93;0.83;;;5.70;33.30;;;;;;5050159;28;20506;-54
2022/04/05 06:30:10;;;;;;;1.87;1.00;;;5.70;34.20;;;;;;5050276;28;21026;-50
2022/04/05 06:32:38;;;;;;;3.80;1.10;;;5.80;10.80;;;;;;5052084;28;20915;-54
2022/04/05 06:35:07;;;;;;;1.70;0.80;;;5.80;8.60;;;;;;5049437;28;20841;-53
2022/04/05 06:37:35;;;;;;;4.53;1.10;;;5.80;28.10;;;;;;5049269;28;20797;-53
2022/04/05 06:40:03;;;;;;;3.63;1.07;;;5.80;35.50;;;;;;5050863;28;20482;-51
2022/04/05 06:42:30;;;;;;;1.20;0.80;;;5.90;28.00;;;;;;5050774;28;20451;-53
2022/04/05 06:44:57;;;;;;;1.40;0.83;;;5.80;5.90;;;;;;5053654;28;20444;-49
2022/04/05 06:47:24;;;;;;;1.87;1.00;;;5.90;35.60;;;;;;5053042;28;20566;-49
2022/04/05 06:49:52;;;;;;;1.63;0.97;;;5.80;22.40;;;;;;5053180;28;20448;-51
2022/04/05 06:52:19;;;;;;;1.90;1.13;;;5.70;26.30;;;;;;5052089;28;20556;-54
2022/04/05 06:54:46;;;;;;;1.23;0.90;;;5.70;21.50;;;;;;5052967;28;21076;-52
2022/04/05 06:57:13;;;;;;;1.90;1.30;;;5.80;48.70;;;;;;5053708;28;20821;-50
2022/04/05 06:59:40;;;;;;;1.50;0.90;;;6.00;25.10;;;;;;5052529;28;20919;-54
2022/04/05 07:02:07;;;;;;;3.30;0.90;;;6.00;6.60;;;;;;5051325;28;20970;-51
2022/04/05 07:04:36;;;;;;;2.93;1.17;;;6.00;23.20;;;;;;5052296;28;20562;-49
2022/04/05 07:07:04;;;;;;;1.50;0.80;;;6.00;26.80;;;;;;5053210;28;20463;-48
2022/04/05 07:09:31;;;;;;;2.30;1.20;;;6.00;6.80;;;;;;5051339;28;20475;-54
2022/04/05 07:11:58;;;;;;;1.73;1.10;;;6.00;1.00;;;;;;5050848;28;20557;-53
2022/04/05 07:14:25;;;;;;;3.33;1.70;;;6.00;1.00;;;;;;5052759;28;20879;-53
2022/04/05 07:16:52;;;;;;;2.47;1.07;;;6.10;1.00;;;;;;5047193;28;20493;-51
2022/04/05 07:19:19;;;;;;;1.80;0.93;;;6.10;1.00;;;;;;5051660;28;20467;-51
2022/04/05 07:21:46;;;;;;;2.40;0.93;;;6.20;1.00;;;;;;5052143;28;20704;-49
2022/04/05 07:24:14;;;;;;;3.43;1.00;;;6.20;1.00;;;;;;5050445;28;20534;-54
2022/04/05 07:26:41;;;;;;;2.57;0.80;;;6.20;1.00;;;;;;5049804;28;20557;-54
2022/04/05 07:29:07;;;;;;;1.60;0.90;;;6.30;1.00;;;;;;5050514;28;20585;-50
2022/04/05 07:31:34;;;;;;;2.33;1.00;;;6.30;1.00;;;;;;5050300;28;20563;-52
2022/04/05 07:34:03;;;;;;;9.60;1.00;;;6.30;1.00;;;;;;5049985;28;20478;-54
2022/04/05 07:36:31;;;;;;;1.50;0.90;;;6.40;1.00;;;;;;5051366;28;20894;-49
2022/04/05 07:38:58;;;;;;;5.63;0.90;;;6.40;1.00;;;;;;5050986;28;20505;-48
2022/04/05 07:41:26;;;;;;;1.93;0.80;;;6.50;1.00;;;;;;5050205;28;20502;-52
2022/04/05 07:43:54;;;;;;;2.17;0.90;;;6.50;1.00;;;;;;5050995;28;20451;-55
2022/04/05 07:46:21;;;;;;;1.47;0.80;;;6.50;1.00;;;;;;5052238;28;20562;-53
2022/04/05 07:48:48;;;;;;;2.70;1.30;;;6.50;1.00;;;;;;5049844;28;20768;-54
2022/04/05 07:51:16;;;;;;;1.33;0.90;;;6.50;1.00;;;;;;5050925;28;20543;-52
2022/04/05 07:53:43;;;;;;;1.00;0.80;;;6.50;1.00;;;;;;5052835;28;20479;-55
2022/04/05 07:56:12;;;;;;;1.50;0.70;;;6.50;1.00;;;;;;5051194;28;20459;-52
2022/04/05 07:58:42;;;;;;;1.10;0.70;;;6.60;1.00;;;;;;5050536;28;20443;-51
2022/04/05 08:01:09;;;;;;;1.10;0.70;;;6.60;1.00;;;;;;5051951;28;20455;-56
2022/04/05 08:03:36;;;;;;;2.30;0.87;;;6.70;1.00;;;;;;5051330;28;20454;-54
2022/04/05 08:06:04;;;;;;;1.83;0.90;;;6.80;1.00;;;;;;5050407;28;20802;-53
2022/04/05 08:08:31;;;;;;;1.40;0.90;;;6.80;1.00;;;;;;5052073;28;20482;-54
2022/04/05 08:10:59;;;;;;;1.13;0.80;;;6.90;1.00;;;;;;5051609;28;20574;-54
2022/04/05 08:13:28;;;;;;;2.30;0.90;;;7.00;1.00;;;;;;5053839;28;20538;-53
2022/04/05 08:15:57;;;;;;;4.43;1.10;;;7.00;1.00;;;;;;5054243;28;20513;-54
2022/04/05 08:18:24;;;;;;;2.67;1.00;;;7.20;1.00;;;;;;5052557;28;20284;-53
2022/04/05 08:20:51;;;;;;;4.73;0.90;;;7.30;1.00;;;;;;5050533;28;20451;-49
2022/04/05 08:23:18;;;;;;;1.23;0.80;;;7.40;1.00;;;;;;5053466;28;20444;-61
2022/04/05 08:25:44;;;;;;;1.70;0.80;;;7.40;1.00;;;;;;5053022;28;20744;-60
2022/04/05 08:28:11;;;;;;;1.97;0.73;;;7.40;1.00;;;;;;5052794;28;20793;-63
2022/04/05 08:30:39;;;;;;;2.40;0.80;;;7.40;1.00;;;;;;5052237;28;20482;-59
2022/04/05 08:33:07;;;;;;;2.27;1.73;;;7.60;1.00;;;;;;5053499;28;20447;-60
2022/04/05 08:35:34;;;;;;;1.47;0.93;;;7.70;1.00;;;;;;5051459;28;20543;-59
2022/04/05 08:38:01;;;;;;;2.93;0.90;;;7.80;1.00;;;;;;5051672;28;20475;-58
2022/04/05 08:40:28;;;;;;;3.30;0.80;;;7.80;1.00;;;;;;5052448;28;20534;-58
2022/04/05 08:42:57;;;;;;;2.10;0.93;;;7.90;1.00;;;;;;5053306;28;20449;-59
2022/04/05 08:45:25;;;;;;;1.50;0.83;;;7.90;1.00;;;;;;5052470;28;20501;-59
2022/04/05 08:47:53;;;;;;;3.50;0.90;;;7.90;1.00;;;;;;5051930;28;20700;-59
2022/04/05 08:50:23;;;;;;;2.50;1.10;;;7.90;1.00;;;;;;5051972;28;20550;-58
2022/04/05 08:52:51;;;;;;;1.40;0.90;;;8.10;1.00;;;;;;5053081;28;20197;-59
2022/04/05 08:55:19;;;;;;;1.10;0.80;;;8.20;1.00;;;;;;5053085;28;20976;-58
2022/04/05 08:57:46;;;;;;;1.83;1.00;;;8.20;1.00;;;;;;5052992;28;20471;-59
2022/04/05 09:00:19;;;;;;;2.25;1.10;;;8.20;1.00;;;;;;5051453;28;20455;-54
2022/04/05 09:02:58;;;;;;;1.27;0.80;;;8.10;1.00;;;;;;5041351;28;20825;-55
2022/04/05 09:05:35;;;;;;;0.90;0.60;;;8.30;1.00;;;;;;5049338;28;20505;-56
2022/04/05 09:08:19;;;;;;;1.50;0.87;;;8.60;1.00;;;;;;5050910;28;20505;-54
2022/04/05 09:10:49;;;;;;;1.30;0.83;;;8.90;1.00;;;;;;5034788;28;20456;-57
2022/04/05 09:13:19;;;;;;;1.30;0.70;;;9.00;1.00;;;;;;5043207;28;20720;-56
2022/04/05 09:15:50;;;;;;;1.50;0.70;;;9.00;1.00;;;;;;5047423;28;20451;-55
2022/04/05 09:18:34;;;;;;;0.90;0.70;;;8.90;1.00;;;;;;5051558;28;20443;-56
2022/04/05 09:21:04;;;;;;;1.00;0.70;;;8.90;1.00;;;;;;5051377;28;20577;-58
2022/04/05 09:23:33;;;;;;;1.30;0.80;;;8.90;1.00;;;;;;5049704;28;20471;-58
2022/04/05 09:26:02;;;;;;;2.87;0.73;;;9.00;1.00;;;;;;5049321;28;20447;-58
2022/04/05 09:28:31;;;;;;;1.10;0.70;;;9.00;1.00;;;;;;5049195;28;20475;-58
2022/04/05 09:31:04;;;;;;;1.10;0.50;;;9.10;1.00;;;;;;5049793;28;20483;-59
2022/04/05 09:33:33;;;;;;;1.13;1.00;;;9.20;1.00;;;;;;5051628;28;20537;-58
2022/04/05 09:36:08;;;;;;;2.40;1.47;;;9.10;1.00;;;;;;5047917;28;20546;-58
2022/04/05 09:38:35;;;;;;;1.50;0.50;;;9.20;1.00;;;;;;5050775;28;20439;-60
2022/04/05 09:41:17;;;;;;;1.97;0.60;;;9.10;99.90;;;;;;5052631;28;20479;-55
2022/04/05 09:43:52;;;;;;;0.83;0.50;;;9.20;1.00;;;;;;5045671;28;20488;-53
2022/04/05 09:46:20;;;;;;;1.30;0.60;;;9.30;1.00;;;;;;5043547;28;20478;-55
2022/04/05 09:48:47;;;;;;;0.70;0.40;;;9.20;1.00;;;;;;5033228;28;20795;-51
2022/04/05 09:51:16;;;;;;;0.90;0.60;;;9.10;1.00;;;;;;5049634;28;20450;-52
2022/04/05 09:53:51;;;;;;;1.07;0.60;;;9.20;1.00;;;;;;5051292;28;20507;-53
2022/04/05 09:56:20;;;;;;;1.27;0.80;;;9.10;1.00;;;;;;5051777;28;20485;-53
2022/04/05 09:58:49;;;;;;;1.10;0.70;;;9.00;1.00;;;;;;5051565;28;20505;-53
2022/04/05 10:01:17;;;;;;;2.17;0.70;;;9.00;1.00;;;;;;5032763;28;20467;-52
2022/04/05 10:03:45;;;;;;;3.70;2.70;;;9.10;1.00;;;;;;5033746;28;20480;-53
2022/04/05 10:06:12;;;;;;;2.07;1.10;;;9.00;1.00;;;;;;5051106;28;20549;-47
2022/04/05 10:08:40;;;;;;;1.00;0.70;;;8.90;1.00;;;;;;5048439;28;20479;-51
2022/04/05 10:11:07;;;;;;;3.20;0.70;;;8.90;1.00;;;;;;5048817;28;20456;-53
2022/04/05 10:13:34;;;;;;;1.30;0.60;;;8.90;1.00;;;;;;5038606;28;20435;-51
2022/04/05 10:16:02;;;;;;;1.30;0.70;;;8.80;1.00;;;;;;5052218;28;20538;-50
2022/04/05 10:18:36;;;;;;;1.00;0.80;;;8.70;1.00;;;;;;5053827;28;20475;-52
2022/04/05 10:21:05;;;;;;;1.60;0.70;;;8.80;1.00;;;;;;5039312;28;20571;-54
2022/04/05 10:23:33;;;;;;;2.50;1.30;;;8.70;1.00;;;;;;5046719;28;20539;-49
2022/04/05 10:26:01;;;;;;;1.70;1.00;;;8.60;1.00;;;;;;5042097;28;20530;-46
2022/04/05 10:28:31;;;;;;;1.53;0.80;;;8.70;1.00;;;;;;5051735;28;20474;-50
2022/04/05 10:31:04;;;;;;;2.30;1.60;;;8.70;1.00;;;;;;5051220;28;20520;-52
2022/04/05 10:33:39;;;;;;;1.30;0.80;;;8.80;1.00;;;;;;5037967;28;20918;-49
2022/04/05 10:36:08;;;;;;;1.50;0.80;;;8.70;1.00;;;;;;5039971;28;20784;-49
2022/04/05 10:38:36;;;;;;;2.30;0.82;;;8.70;1.00;;;;;;5048739;28;20407;-50
2022/04/05 10:41:16;;;;;;;1.80;1.00;;;8.60;12.70;;;;;;5038659;28;20481;-46
2022/04/05 10:43:44;;;;;;;5.43;1.00;;;8.60;18.70;;;;;;5048190;28;20448;-49
2022/04/05 10:46:12;;;;;;;1.70;0.80;;;8.60;30.20;;;;;;5038370;28;20495;-51
2022/04/05 10:48:55;;;;;;;1.93;0.90;;;8.60;33.00;;;;;;5050409;28;20526;-45
2022/04/05 10:51:35;;;;;;;1.20;0.80;;;8.60;35.30;;;;;;5040229;28;20550;-46
2022/04/05 10:54:22;;;;;;;3.73;0.80;;;8.70;40.70;;;;;;5042798;28;20543;-47
2022/04/05 10:57:26;;;;;;;1.63;0.80;;;8.80;50.60;;;;;;5049192;28;20462;-51
2022/04/05 10:59:57;;;;;;;1.10;0.70;;;8.90;10.90;;;;;;5048051;28;20450;-49
2022/04/05 11:02:45;;;;;;;1.87;0.70;;;8.80;14.70;;;;;;5048917;28;20542;-48
2022/04/05 11:05:38;;;;;;;1.20;0.77;;;8.70;4.50;;;;;;5030540;28;20447;-46
2022/04/05 11:08:11;;;;;;;2.00;0.73;;;8.80;18.20;;;;;;5043333;28;20907;-47
2022/04/05 11:10:54;;;;;;;0.90;0.60;;;8.90;16.40;;;;;;5050229;28;20522;-48
2022/04/05 11:13:40;;;;;;;1.40;0.80;;;9.00;1.00;;;;;;5038589;28;20870;-48
2022/04/05 11:16:11;;;;;;;2.80;0.83;;;9.10;20.70;;;;;;5040797;28;20518;-50
2022/04/05 11:18:39;;;;;;;1.20;0.80;;;9.20;19.90;;;;;;5045698;28;20540;-50
2022/04/05 11:21:09;;;;;;;1.20;0.70;;;9.40;17.00;;;;;;5055281;28;20574;-46
2022/04/05 11:23:58;;;;;;;1.10;0.53;;;9.50;13.40;;;;;;5048857;28;20452;-50
2022/04/05 11:26:28;;;;;;;1.30;0.60;;;9.50;1.00;;;;;;5033765;28;20488;-49
2022/04/05 11:28:58;;;;;;;1.20;0.60;;;9.60;1.00;;;;;;5039646;28;20472;-46
2022/04/05 11:31:31;;;;;;;1.93;1.10;;;9.80;14.60;;;;;;5048535;28;20553;-49
2022/04/05 11:33:58;;;;;;;2.57;0.80;;;10.00;1.00;;;;;;5049962;28;21109;-48
2022/04/05 11:36:26;;;;;;;3.23;1.63;;;9.90;1.00;;;;;;5039688;28;20555;-49
2022/04/05 11:38:57;;;;;;;1.07;0.57;;;10.00;1.00;;;;;;5045237;28;20927;-50
2022/04/05 11:41:25;;;;;;;1.10;0.50;;;10.00;1.00;;;;;;5052846;28;20894;-49
2022/04/05 11:43:53;;;;;;;1.43;0.73;;;10.10;1.00;;;;;;5043105;28;20519;-48
2022/04/05 11:46:23;;;;;;;1.03;0.60;;;10.20;1.00;;;;;;5051783;28;20546;-47
2022/04/05 11:48:52;;;;;;;1.00;0.60;;;10.30;1.00;;;;;;5052010;28;20534;-45
2022/04/05 11:51:21;;;;;;;1.70;0.60;;;10.30;1.00;;;;;;5053231;28;20487;-47
2022/04/05 11:53:48;;;;;;;2.20;1.10;;;10.40;1.00;;;;;;5052850;28;20486;-48
2022/04/05 11:56:18;;;;;;;1.00;0.60;;;10.60;1.00;;;;;;5049408;28;20653;-47
2022/04/05 11:58:48;;;;;;;0.97;0.50;;;10.80;1.00;;;;;;5052159;28;20750;-52
2022/04/05 12:01:19;;;;;;;0.97;0.53;;;11.00;1.00;;;;;;5052084;28;20544;-49
2022/04/05 12:03:52;;;;;;;3.73;0.60;;;10.90;1.00;;;;;;5050640;28;20606;-49
2022/04/05 12:06:20;;;;;;;1.67;0.70;;;10.80;1.00;;;;;;5050719;28;20562;-52
2022/04/05 12:08:49;;;;;;;1.63;0.90;;;11.10;1.00;;;;;;5053333;28;20479;-48
2022/04/05 12:11:18;;;;;;;0.87;0.60;;;11.30;99.90;;;;;;5050592;28;20566;-50
2022/04/05 12:13:53;;;;;;;0.90;0.53;;;11.70;99.90;;;;;;5051060;28;20718;-48
2022/04/05 12:16:20;;;;;;;1.10;0.60;;;11.90;99.90;;;;;;5042924;28;20451;-50
2022/04/05 12:18:49;;;;;;;1.00;0.50;;;11.80;99.90;;;;;;5049128;28;20528;-47
2022/04/05 12:21:16;;;;;;;0.90;0.60;;;11.60;1.00;;;;;;5048209;28;20863;-52
2022/04/05 12:23:44;;;;;;;0.93;0.50;;;11.50;99.90;;;;;;5051041;28;20842;-50
2022/04/05 12:26:14;;;;;;;1.73;0.70;;;11.50;99.90;;;;;;5046865;28;20472;-51
2022/04/05 12:28:43;;;;;;;1.00;0.50;;;11.30;99.90;;;;;;5051601;28;20448;-48
2022/04/05 12:31:12;;;;;;;1.87;0.50;;;11.40;1.00;;;;;;5050795;28;20478;-51
2022/04/05 12:33:41;;;;;;;0.83;0.50;;;11.60;99.90;;;;;;5050519;28;20519;-50
2022/04/05 12:36:10;;;;;;;1.13;0.60;;;11.70;99.90;;;;;;5052015;28;20447;-49
2022/04/05 12:38:37;;;;;;;1.10;0.60;;;11.60;1.00;;;;;;5053163;28;20861;-48
2022/04/05 12:41:13;;;;;;;0.73;0.40;;;11.60;1.00;;;;;;5052748;28;20448;-48
2022/04/05 12:43:40;;;;;;;1.10;0.60;;;11.60;99.90;;;;;;5051991;28;20443;-47
2022/04/05 12:46:12;;;;;;;0.90;0.50;;;11.60;99.90;;;;;;5051343;28;20558;-50
2022/04/05 12:48:40;;;;;;;0.80;0.50;;;11.40;99.90;;;;;;5051280;28;20538;-52
2022/04/05 12:51:09;;;;;;;0.80;0.50;;;11.30;99.90;;;;;;5052090;28;20533;-51
2022/04/05 12:53:38;;;;;;;0.60;0.40;;;11.40;99.90;;;;;;5051995;28;20505;-49
2022/04/05 12:56:09;;;;;;;1.00;0.50;;;11.40;99.90;;;;;;5050521;28;20575;-50
2022/04/05 12:58:41;;;;;;;2.70;0.40;;;11.40;1.00;;;;;;5050245;28;20533;-51
2022/04/05 13:01:19;;;;;;;0.80;0.40;;;11.50;99.90;;;;;;5046479;28;20451;-47
2022/04/05 13:03:46;;;;;;;0.90;0.50;;;11.40;1.00;;;;;;5047148;28;20439;-49
2022/04/05 13:06:28;;;;;;;0.83;0.40;;;11.40;1.00;;;;;;5050371;28;20767;-50
2022/04/05 13:09:06;;;;;;;1.10;0.40;;;11.20;1.00;;;;;;5052346;28;20516;-49
2022/04/05 13:11:33;;;;;;;0.70;0.40;;;11.20;40.80;;;;;;5050344;28;20475;-51